sensor_id;sensor_type;location;lat;lon;timestamp;pressure;altitude;pressure_sealevel;temperature;humidity
48204;BME280;33994;50.998;5.864;2023-09-07T00:01:44;101388.53;;;18.85;78.91
48204;BME280;33994;50.998;5.864;2023-09-07T00:04:47;101378.91;;;18.83;79.40
48204;BME280;33994;50.998;5.864;2023-09-07T00:07:50;101371.88;;;18.82;79.36
48204;BME280;33994;50.998;5.864;2023-09-07T00:10:55;101366.63;;;18.80;79.15
48204;BME280;33994;50.998;5.864;2023-09-07T00:14:04;101357.03;;;18.78;78.66
48204;BME280;33994;50.998;5.864;2023-09-07T00:17:08;101351.13;;;18.71;78.87
48204;BME280;33994;50.998;5.864;2023-09-07T00:20:11;101352.91;;;18.70;78.91
48204;BME280;33994;50.998;5.864;2023-09-07T00:23:14;101352.28;;;18.64;78.88
48204;BME280;33994;50.998;5.864;2023-09-07T00:26:19;101358.66;;;18.58;78.85
48204;BME280;33994;50.998;5.864;2023-09-07T00:29:22;101357.06;;;18.54;79.08
48204;BME280;33994;50.998;5.864;2023-09-07T00:32:25;101357.84;;;18.56;79.02
48204;BME280;33994;50.998;5.864;2023-09-07T00:35:28;101354.41;;;18.54;78.98
48204;BME280;33994;50.998;5.864;2023-09-07T00:38:31;101351.88;;;18.51;79.10
48204;BME280;33994;50.998;5.864;2023-09-07T00:41:36;101354.72;;;18.46;79.54
48204;BME280;33994;50.998;5.864;2023-09-07T00:44:39;101349.53;;;18.43;79.84
48204;BME280;33994;50.998;5.864;2023-09-07T00:47:43;101341.78;;;18.39;80.17
48204;BME280;33994;50.998;5.864;2023-09-07T00:50:46;101345.59;;;18.32;80.50
48204;BME280;33994;50.998;5.864;2023-09-07T00:53:50;101343.34;;;18.21;81.24
48204;BME280;33994;50.998;5.864;2023-09-07T00:56:54;101344.56;;;18.12;81.48
48204;BME280;33994;50.998;5.864;2023-09-07T00:59:58;101352.91;;;18.02;81.77
48204;BME280;33994;50.998;5.864;2023-09-07T01:03:02;101346.41;;;17.87;82.58
48204;BME280;33994;50.998;5.864;2023-09-07T01:06:11;101338.00;;;17.75;83.00
48204;BME280;33994;50.998;5.864;2023-09-07T01:09:19;101345.84;;;17.79;82.92
48204;BME280;33994;50.998;5.864;2023-09-07T01:12:23;101337.06;;;17.77;82.65
48204;BME280;33994;50.998;5.864;2023-09-07T01:15:26;101336.97;;;17.80;82.40
48204;BME280;33994;50.998;5.864;2023-09-07T01:18:30;101337.94;;;17.77;82.53
48204;BME280;33994;50.998;5.864;2023-09-07T01:21:36;101334.44;;;17.77;82.72
48204;BME280;33994;50.998;5.864;2023-09-07T01:24:40;101337.22;;;17.73;82.66
48204;BME280;33994;50.998;5.864;2023-09-07T01:27:44;101339.22;;;17.65;82.95
48204;BME280;33994;50.998;5.864;2023-09-07T01:30:48;101341.16;;;17.60;83.55
48204;BME280;33994;50.998;5.864;2023-09-07T01:33:51;101336.16;;;17.52;83.77
48204;BME280;33994;50.998;5.864;2023-09-07T01:36:56;101334.72;;;17.44;84.45
48204;BME280;33994;50.998;5.864;2023-09-07T01:39:58;101338.38;;;17.40;84.60
48204;BME280;33994;50.998;5.864;2023-09-07T01:43:02;101340.22;;;17.38;84.82
48204;BME280;33994;50.998;5.864;2023-09-07T01:46:05;101336.00;;;17.32;84.89
48204;BME280;33994;50.998;5.864;2023-09-07T01:49:08;101335.03;;;17.35;85.12
48204;BME280;33994;50.998;5.864;2023-09-07T01:52:13;101329.25;;;17.23;85.36
48204;BME280;33994;50.998;5.864;2023-09-07T01:55:16;101325.91;;;17.18;85.62
48204;BME280;33994;50.998;5.864;2023-09-07T01:58:19;101324.97;;;17.19;85.99
48204;BME280;33994;50.998;5.864;2023-09-07T02:01:23;101335.69;;;17.16;86.06
48204;BME280;33994;50.998;5.864;2023-09-07T02:04:27;101322.50;;;17.15;85.91
48204;BME280;33994;50.998;5.864;2023-09-07T02:07:31;101323.38;;;17.15;85.90
48204;BME280;33994;50.998;5.864;2023-09-07T02:10:35;101327.03;;;17.11;86.16
48204;BME280;33994;50.998;5.864;2023-09-07T02:13:41;101332.41;;;17.08;86.06
48204;BME280;33994;50.998;5.864;2023-09-07T02:16:44;101334.25;;;17.06;86.21
48204;BME280;33994;50.998;5.864;2023-09-07T02:19:47;101326.53;;;17.00;86.21
48204;BME280;33994;50.998;5.864;2023-09-07T02:22:52;101324.81;;;16.99;86.67
48204;BME280;33994;50.998;5.864;2023-09-07T02:25:55;101324.75;;;17.00;86.52
48204;BME280;33994;50.998;5.864;2023-09-07T02:28:58;101331.56;;;17.08;86.30
48204;BME280;33994;50.998;5.864;2023-09-07T02:32:01;101326.16;;;17.11;86.26
48204;BME280;33994;50.998;5.864;2023-09-07T02:35:05;101332.53;;;17.05;86.26
48204;BME280;33994;50.998;5.864;2023-09-07T02:38:09;101335.22;;;17.03;86.74
48204;BME280;33994;50.998;5.864;2023-09-07T02:41:13;101332.53;;;17.05;86.69
48204;BME280;33994;50.998;5.864;2023-09-07T02:44:16;101330.03;;;17.00;86.74
48204;BME280;33994;50.998;5.864;2023-09-07T02:47:19;101328.41;;;16.96;86.82
48204;BME280;33994;50.998;5.864;2023-09-07T02:50:22;101329.50;;;16.91;86.89
48204;BME280;33994;50.998;5.864;2023-09-07T02:53:27;101327.97;;;16.84;87.44
48204;BME280;33994;50.998;5.864;2023-09-07T02:56:30;101314.81;;;16.82;87.83
48204;BME280;33994;50.998;5.864;2023-09-07T02:59:33;101321.97;;;16.78;87.97
48204;BME280;33994;50.998;5.864;2023-09-07T03:02:37;101322.97;;;16.74;88.29
48204;BME280;33994;50.998;5.864;2023-09-07T03:05:40;101323.06;;;16.71;88.44
48204;BME280;33994;50.998;5.864;2023-09-07T03:08:44;101323.06;;;16.71;88.30
48204;BME280;33994;50.998;5.864;2023-09-07T03:11:47;101312.59;;;16.68;87.98
48204;BME280;33994;50.998;5.864;2023-09-07T03:14:51;101321.53;;;16.64;87.86
48204;BME280;33994;50.998;5.864;2023-09-07T03:17:54;101311.91;;;16.62;87.82
48204;BME280;33994;50.998;5.864;2023-09-07T03:20:59;101307.47;;;16.62;87.86
48204;BME280;33994;50.998;5.864;2023-09-07T03:24:05;101316.41;;;16.58;87.54
48204;BME280;33994;50.998;5.864;2023-09-07T03:27:08;101312.06;;;16.57;87.26
48204;BME280;33994;50.998;5.864;2023-09-07T03:30:11;101311.13;;;16.58;87.36
48204;BME280;33994;50.998;5.864;2023-09-07T03:33:14;101319.91;;;16.60;87.18
48204;BME280;33994;50.998;5.864;2023-09-07T03:36:18;101322.69;;;16.56;87.34
48204;BME280;33994;50.998;5.864;2023-09-07T03:39:22;101321.91;;;16.52;87.39
48204;BME280;33994;50.998;5.864;2023-09-07T03:42:26;101327.31;;;16.47;87.28
48204;BME280;33994;50.998;5.864;2023-09-07T03:45:29;101322.09;;;16.46;87.39
48204;BME280;33994;50.998;5.864;2023-09-07T03:48:32;101316.97;;;16.41;87.32
48204;BME280;33994;50.998;5.864;2023-09-07T03:51:36;101318.94;;;16.35;87.47
48204;BME280;33994;50.998;5.864;2023-09-07T03:54:40;101321.72;;;16.30;87.81
48204;BME280;33994;50.998;5.864;2023-09-07T03:57:43;101329.56;;;16.32;87.94
48204;BME280;33994;50.998;5.864;2023-09-07T04:00:46;101318.91;;;16.36;87.58
48204;BME280;33994;50.998;5.864;2023-09-07T04:03:50;101325.94;;;16.36;87.30
48204;BME280;33994;50.998;5.864;2023-09-07T04:06:53;101333.06;;;16.34;87.51
48204;BME280;33994;50.998;5.864;2023-09-07T04:09:58;101324.34;;;16.30;87.28
48204;BME280;33994;50.998;5.864;2023-09-07T04:13:01;101326.22;;;16.26;87.37
48204;BME280;33994;50.998;5.864;2023-09-07T04:16:04;101324.66;;;16.21;87.91
48204;BME280;33994;50.998;5.864;2023-09-07T04:19:07;101324.69;;;16.19;88.09
48204;BME280;33994;50.998;5.864;2023-09-07T04:22:10;101313.34;;;16.16;88.05
48204;BME280;33994;50.998;5.864;2023-09-07T04:25:15;101320.31;;;16.18;88.18
48204;BME280;33994;50.998;5.864;2023-09-07T04:28:18;101317.78;;;16.15;87.90
48204;BME280;33994;50.998;5.864;2023-09-07T04:31:21;101317.84;;;16.14;88.06
48204;BME280;33994;50.998;5.864;2023-09-07T04:34:25;101322.34;;;16.10;87.99
48204;BME280;33994;50.998;5.864;2023-09-07T04:37:28;101317.94;;;16.09;88.19
48204;BME280;33994;50.998;5.864;2023-09-07T04:40:32;101323.44;;;16.01;88.34
48204;BME280;33994;50.998;5.864;2023-09-07T04:43:36;101317.50;;;15.95;88.63
48204;BME280;33994;50.998;5.864;2023-09-07T04:46:39;101315.75;;;15.94;88.88
48204;BME280;33994;50.998;5.864;2023-09-07T04:49:48;101323.81;;;15.89;89.21
48204;BME280;33994;50.998;5.864;2023-09-07T04:52:52;101322.09;;;15.88;89.41
48204;BME280;33994;50.998;5.864;2023-09-07T04:55:57;101326.50;;;15.88;89.51
48204;BME280;33994;50.998;5.864;2023-09-07T04:59:00;101334.41;;;15.88;89.52
48204;BME280;33994;50.998;5.864;2023-09-07T05:02:03;101331.59;;;15.94;89.58
48204;BME280;33994;50.998;5.864;2023-09-07T05:05:07;101328.16;;;15.90;89.58
48204;BME280;33994;50.998;5.864;2023-09-07T05:08:11;101332.59;;;15.90;89.68
48204;BME280;33994;50.998;5.864;2023-09-07T05:11:15;101330.88;;;15.89;89.80
48204;BME280;33994;50.998;5.864;2023-09-07T05:14:18;101336.97;;;15.91;89.95
48204;BME280;33994;50.998;5.864;2023-09-07T05:17:22;101339.63;;;15.91;90.21
48204;BME280;33994;50.998;5.864;2023-09-07T05:20:25;101339.63;;;15.91;90.26
48204;BME280;33994;50.998;5.864;2023-09-07T05:23:28;101350.06;;;15.94;90.14
48204;BME280;33994;50.998;5.864;2023-09-07T05:26:32;101350.81;;;15.97;90.28
48204;BME280;33994;50.998;5.864;2023-09-07T05:29:35;101352.66;;;15.95;90.66
48204;BME280;33994;50.998;5.864;2023-09-07T05:32:39;101354.31;;;15.99;90.50
48204;BME280;33994;50.998;5.864;2023-09-07T05:35:42;101361.28;;;16.02;90.48
48204;BME280;33994;50.998;5.864;2023-09-07T05:38:45;101354.88;;;16.09;90.27
48204;BME280;33994;50.998;5.864;2023-09-07T05:41:50;101359.16;;;16.13;90.19
48204;BME280;33994;50.998;5.864;2023-09-07T05:44:54;101363.47;;;16.17;89.93
48204;BME280;33994;50.998;5.864;2023-09-07T05:47:57;101354.47;;;16.23;89.85
48204;BME280;33994;50.998;5.864;2023-09-07T05:51:00;101366.66;;;16.28;89.88
48204;BME280;33994;50.998;5.864;2023-09-07T05:54:03;101369.91;;;16.37;89.47
48204;BME280;33994;50.998;5.864;2023-09-07T05:57:08;101360.91;;;16.44;89.35
48204;BME280;33994;50.998;5.864;2023-09-07T06:00:12;101365.88;;;16.53;88.97
48204;BME280;33994;50.998;5.864;2023-09-07T06:03:15;101363.78;;;16.64;88.55
48204;BME280;33994;50.998;5.864;2023-09-07T06:06:18;101365.22;;;16.74;88.34
48204;BME280;33994;50.998;5.864;2023-09-07T06:09:21;101376.38;;;16.84;88.06
48204;BME280;33994;50.998;5.864;2023-09-07T06:12:26;101369.81;;;16.96;87.53
48204;BME280;33994;50.998;5.864;2023-09-07T06:15:29;101374.69;;;17.08;86.87
48204;BME280;33994;50.998;5.864;2023-09-07T06:18:32;101368.88;;;17.23;86.39
48204;BME280;33994;50.998;5.864;2023-09-07T06:21:36;101375.28;;;17.43;85.46
48204;BME280;33994;50.998;5.864;2023-09-07T06:24:39;101384.34;;;17.61;85.23
48204;BME280;33994;50.998;5.864;2023-09-07T06:27:44;101382.03;;;17.77;84.01
48204;BME280;33994;50.998;5.864;2023-09-07T06:30:47;101383.06;;;17.97;83.30
48204;BME280;33994;50.998;5.864;2023-09-07T06:33:50;101380.59;;;18.16;82.78
48204;BME280;33994;50.998;5.864;2023-09-07T06:36:53;101386.91;;;18.36;82.04
48204;BME280;33994;50.998;5.864;2023-09-07T06:39:56;101392.28;;;18.56;80.47
48204;BME280;33994;50.998;5.864;2023-09-07T06:43:01;101388.88;;;18.76;79.60
48204;BME280;33994;50.998;5.864;2023-09-07T06:46:06;101386.50;;;18.92;78.81
48204;BME280;33994;50.998;5.864;2023-09-07T06:49:10;101386.56;;;19.11;77.99
48204;BME280;33994;50.998;5.864;2023-09-07T06:52:13;101398.31;;;19.26;77.11
48204;BME280;33994;50.998;5.864;2023-09-07T06:55:16;101399.34;;;19.43;76.09
48204;BME280;33994;50.998;5.864;2023-09-07T06:58:21;101396.06;;;19.59;75.21
48204;BME280;33994;50.998;5.864;2023-09-07T07:01:24;101392.13;;;19.67;74.60
48204;BME280;33994;50.998;5.864;2023-09-07T07:04:27;101388.97;;;19.80;74.06
48204;BME280;33994;50.998;5.864;2023-09-07T07:07:31;101396.25;;;19.95;73.41
48204;BME280;33994;50.998;5.864;2023-09-07T07:10:34;101397.59;;;20.04;72.59
48204;BME280;33994;50.998;5.864;2023-09-07T07:13:38;101399.19;;;20.08;71.98
48204;BME280;33994;50.998;5.864;2023-09-07T07:16:41;101405.13;;;20.13;71.91
48204;BME280;33994;50.998;5.864;2023-09-07T07:19:44;101405.59;;;20.23;71.31
48204;BME280;33994;50.998;5.864;2023-09-07T07:22:48;101401.53;;;20.34;70.79
48204;BME280;33994;50.998;5.864;2023-09-07T07:25:51;101402.75;;;20.46;70.27
48204;BME280;33994;50.998;5.864;2023-09-07T07:28:55;101413.75;;;20.57;69.97
48204;BME280;33994;50.998;5.864;2023-09-07T07:31:59;101410.78;;;20.63;69.53
48204;BME280;33994;50.998;5.864;2023-09-07T07:35:02;101409.72;;;20.68;69.13
48204;BME280;33994;50.998;5.864;2023-09-07T07:38:05;101422.06;;;20.69;69.24
48204;BME280;33994;50.998;5.864;2023-09-07T07:41:08;101417.38;;;20.74;69.19
48204;BME280;33994;50.998;5.864;2023-09-07T07:44:13;101421.59;;;20.78;68.67
48204;BME280;33994;50.998;5.864;2023-09-07T07:47:16;101431.00;;;20.85;68.67
48204;BME280;33994;50.998;5.864;2023-09-07T07:50:19;101420.25;;;20.88;68.61
48204;BME280;33994;50.998;5.864;2023-09-07T07:53:23;101415.53;;;20.93;68.76
48204;BME280;33994;50.998;5.864;2023-09-07T07:56:26;101413.38;;;21.01;68.82
48204;BME280;33994;50.998;5.864;2023-09-07T07:59:30;101413.06;;;21.07;68.42
48204;BME280;33994;50.998;5.864;2023-09-07T08:02:33;101405.72;;;21.12;68.46
48204;BME280;33994;50.998;5.864;2023-09-07T08:05:37;101403.75;;;21.18;68.51
48204;BME280;33994;50.998;5.864;2023-09-07T08:08:40;101402.41;;;21.26;68.19
48204;BME280;33994;50.998;5.864;2023-09-07T08:11:43;101399.50;;;21.31;68.15
48204;BME280;33994;50.998;5.864;2023-09-07T08:14:48;101395.75;;;21.35;67.88
48204;BME280;33994;50.998;5.864;2023-09-07T08:17:51;101396.47;;;21.38;68.17
48204;BME280;33994;50.998;5.864;2023-09-07T08:20:54;101389.97;;;21.44;68.23
48204;BME280;33994;50.998;5.864;2023-09-07T08:23:57;101395.75;;;21.52;68.23
48204;BME280;33994;50.998;5.864;2023-09-07T08:27:01;101392.84;;;21.57;68.17
48204;BME280;33994;50.998;5.864;2023-09-07T08:30:06;101389.19;;;21.59;67.43
48204;BME280;33994;50.998;5.864;2023-09-07T08:33:10;101389.69;;;21.66;67.43
48204;BME280;33994;50.998;5.864;2023-09-07T08:36:13;101387.53;;;21.74;66.70
48204;BME280;33994;50.998;5.864;2023-09-07T08:39:16;101384.78;;;21.76;66.39
48204;BME280;33994;50.998;5.864;2023-09-07T08:42:20;101380.16;;;21.79;66.74
48204;BME280;33994;50.998;5.864;2023-09-07T08:45:26;101378.09;;;21.84;66.59
48204;BME280;33994;50.998;5.864;2023-09-07T08:48:32;101379.41;;;21.93;66.24
48204;BME280;33994;50.998;5.864;2023-09-07T08:51:36;101381.75;;;21.99;66.43
48204;BME280;33994;50.998;5.864;2023-09-07T08:54:41;101373.53;;;22.04;66.32
48204;BME280;33994;50.998;5.864;2023-09-07T08:57:44;101369.84;;;22.06;65.92
48204;BME280;33994;50.998;5.864;2023-09-07T09:00:49;101370.44;;;22.11;65.82
48204;BME280;33994;50.998;5.864;2023-09-07T09:03:52;101368.56;;;22.14;65.34
48204;BME280;33994;50.998;5.864;2023-09-07T09:06:56;101367.34;;;22.19;65.20
48204;BME280;33994;50.998;5.864;2023-09-07T09:10:05;101363.50;;;22.25;65.15
48204;BME280;33994;50.998;5.864;2023-09-07T09:13:09;101359.88;;;22.26;65.04
48204;BME280;33994;50.998;5.864;2023-09-07T09:16:14;101359.56;;;22.32;65.23
48204;BME280;33994;50.998;5.864;2023-09-07T09:19:17;101358.44;;;22.36;64.47
48204;BME280;33994;50.998;5.864;2023-09-07T09:22:21;101353.97;;;22.37;64.45
48204;BME280;33994;50.998;5.864;2023-09-07T09:25:24;101356.38;;;22.41;64.14
48204;BME280;33994;50.998;5.864;2023-09-07T09:28:27;101352.59;;;22.45;64.40
48204;BME280;33994;50.998;5.864;2023-09-07T09:31:32;101356.78;;;22.49;64.51
48204;BME280;33994;50.998;5.864;2023-09-07T09:34:37;101352.94;;;22.55;63.77
48204;BME280;33994;50.998;5.864;2023-09-07T09:37:46;101348.28;;;22.58;63.63
48204;BME280;33994;50.998;5.864;2023-09-07T09:40:49;101347.16;;;22.63;64.10
48204;BME280;33994;50.998;5.864;2023-09-07T09:43:52;101346.06;;;22.67;63.94
48204;BME280;33994;50.998;5.864;2023-09-07T09:46:59;101338.50;;;22.75;63.92
48204;BME280;33994;50.998;5.864;2023-09-07T09:50:02;101340.03;;;22.79;63.47
48204;BME280;33994;50.998;5.864;2023-09-07T09:53:05;101341.56;;;22.83;63.57
48204;BME280;33994;50.998;5.864;2023-09-07T09:56:09;101337.78;;;22.87;64.16
48204;BME280;33994;50.998;5.864;2023-09-07T09:59:13;101326.94;;;22.90;63.70
48204;BME280;33994;50.998;5.864;2023-09-07T10:02:18;101322.28;;;22.94;64.07
48204;BME280;33994;50.998;5.864;2023-09-07T10:05:21;101329.03;;;22.99;64.35
48204;BME280;33994;50.998;5.864;2023-09-07T10:08:29;101321.81;;;23.01;64.10
48204;BME280;33994;50.998;5.864;2023-09-07T10:11:33;101313.66;;;23.04;63.99
48204;BME280;33994;50.998;5.864;2023-09-07T10:14:39;101313.66;;;23.04;64.26
48204;BME280;33994;50.998;5.864;2023-09-07T10:17:44;101311.44;;;23.11;64.16
48204;BME280;33994;50.998;5.864;2023-09-07T10:20:52;101313.88;;;23.16;63.92
48204;BME280;33994;50.998;5.864;2023-09-07T10:23:55;101312.50;;;23.23;63.89
48204;BME280;33994;50.998;5.864;2023-09-07T10:27:02;101306.81;;;23.29;63.92
48204;BME280;33994;50.998;5.864;2023-09-07T10:30:10;101316.34;;;23.33;63.78
48204;BME280;33994;50.998;5.864;2023-09-07T10:33:20;101307.22;;;23.37;63.48
48204;BME280;33994;50.998;5.864;2023-09-07T10:36:25;101302.50;;;23.42;63.65
48204;BME280;33994;50.998;5.864;2023-09-07T10:39:30;101302.97;;;23.49;63.34
48204;BME280;33994;50.998;5.864;2023-09-07T10:42:34;101301.75;;;23.54;63.27
48204;BME280;33994;50.998;5.864;2023-09-07T10:45:37;101296.09;;;23.59;62.47
48204;BME280;33994;50.998;5.864;2023-09-07T10:48:42;101291.31;;;23.64;62.24
48204;BME280;33994;50.998;5.864;2023-09-07T10:51:46;101287.72;;;23.65;62.54
48204;BME280;33994;50.998;5.864;2023-09-07T10:54:55;101285.50;;;23.72;63.28
48204;BME280;33994;50.998;5.864;2023-09-07T10:57:59;101281.69;;;23.76;62.99
48204;BME280;33994;50.998;5.864;2023-09-07T11:01:03;101274.44;;;23.78;63.07
48204;BME280;33994;50.998;5.864;2023-09-07T11:04:07;101278.66;;;23.82;62.84
48204;BME280;33994;50.998;5.864;2023-09-07T11:07:10;101278.03;;;23.91;62.60
48204;BME280;33994;50.998;5.864;2023-09-07T11:10:14;101274.22;;;23.95;62.59
48204;BME280;33994;50.998;5.864;2023-09-07T11:13:17;101277.66;;;23.97;62.42
48204;BME280;33994;50.998;5.864;2023-09-07T11:16:24;101270.00;;;24.05;61.95
48204;BME280;33994;50.998;5.864;2023-09-07T11:19:31;101272.34;;;24.12;61.73
48204;BME280;33994;50.998;5.864;2023-09-07T11:22:35;101263.03;;;24.17;61.84
48204;BME280;33994;50.998;5.864;2023-09-07T11:25:38;101266.28;;;24.22;61.81
48204;BME280;33994;50.998;5.864;2023-09-07T11:28:41;101262.22;;;24.29;61.89
48204;BME280;33994;50.998;5.864;2023-09-07T11:31:45;101262.88;;;24.33;61.28
48204;BME280;33994;50.998;5.864;2023-09-07T11:34:50;101260.78;;;24.38;60.63
48204;BME280;33994;50.998;5.864;2023-09-07T11:37:54;101265.94;;;24.41;60.86
48204;BME280;33994;50.998;5.864;2023-09-07T11:40:56;101262.00;;;24.47;60.72
48204;BME280;33994;50.998;5.864;2023-09-07T11:44:00;101261.47;;;24.55;60.71
48204;BME280;33994;50.998;5.864;2023-09-07T11:47:03;101262.78;;;24.62;60.58
48204;BME280;33994;50.998;5.864;2023-09-07T11:50:08;101248.44;;;24.63;60.07
48204;BME280;33994;50.998;5.864;2023-09-07T11:53:11;101259.78;;;24.66;59.95
48204;BME280;33994;50.998;5.864;2023-09-07T11:56:14;101245.38;;;24.69;59.79
48204;BME280;33994;50.998;5.864;2023-09-07T11:59:17;101247.63;;;24.75;59.52
48204;BME280;33994;50.998;5.864;2023-09-07T12:02:20;101239.22;;;24.81;59.02
48204;BME280;33994;50.998;5.864;2023-09-07T12:05:25;101238.69;;;24.89;58.86
48204;BME280;33994;50.998;5.864;2023-09-07T12:08:28;101245.13;;;24.99;58.75
48204;BME280;33994;50.998;5.864;2023-09-07T12:11:32;101232.28;;;25.04;58.28
48204;BME280;33994;50.998;5.864;2023-09-07T12:14:35;101236.56;;;25.07;58.33
48204;BME280;33994;50.998;5.864;2023-09-07T12:17:39;101230.78;;;25.13;58.43
48204;BME280;33994;50.998;5.864;2023-09-07T12:20:44;101225.22;;;25.16;57.96
48204;BME280;33994;50.998;5.864;2023-09-07T12:23:47;101220.63;;;25.18;58.02
48204;BME280;33994;50.998;5.864;2023-09-07T12:26:50;101220.94;;;25.26;57.46
48204;BME280;33994;50.998;5.864;2023-09-07T12:29:53;101219.84;;;25.29;57.50
48204;BME280;33994;50.998;5.864;2023-09-07T12:32:57;101219.75;;;25.30;57.57
48204;BME280;33994;50.998;5.864;2023-09-07T12:36:01;101218.56;;;25.34;58.19
48204;BME280;33994;50.998;5.864;2023-09-07T12:39:04;101206.56;;;25.40;57.81
48204;BME280;33994;50.998;5.864;2023-09-07T12:42:08;101211.81;;;25.41;57.67
48204;BME280;33994;50.998;5.864;2023-09-07T12:45:12;101217.91;;;25.43;57.37
48204;BME280;33994;50.998;5.864;2023-09-07T12:48:15;101210.34;;;25.50;57.03
48204;BME280;33994;50.998;5.864;2023-09-07T12:51:20;101201.22;;;25.53;57.21
48204;BME280;33994;50.998;5.864;2023-09-07T12:54:23;101198.00;;;25.60;57.68
48204;BME280;33994;50.998;5.864;2023-09-07T12:57:26;101193.16;;;25.65;56.91
48204;BME280;33994;50.998;5.864;2023-09-07T13:00:30;101193.78;;;25.69;57.18
48204;BME280;33994;50.998;5.864;2023-09-07T13:03:33;101194.44;;;25.72;56.51
48204;BME280;33994;50.998;5.864;2023-09-07T13:06:37;101185.31;;;25.75;56.46
48204;BME280;33994;50.998;5.864;2023-09-07T13:09:42;101188.50;;;25.80;56.40
48204;BME280;33994;50.998;5.864;2023-09-07T13:12:46;101169.53;;;25.83;55.70
48204;BME280;33994;50.998;5.864;2023-09-07T13:15:49;101170.25;;;25.85;55.39
48204;BME280;33994;50.998;5.864;2023-09-07T13:18:52;101175.28;;;25.90;55.31
48204;BME280;33994;50.998;5.864;2023-09-07T13:21:57;101168.41;;;25.98;55.48
48204;BME280;33994;50.998;5.864;2023-09-07T13:25:00;101157.56;;;26.00;55.36
48204;BME280;33994;50.998;5.864;2023-09-07T13:28:04;101170.59;;;26.05;55.14
48204;BME280;33994;50.998;5.864;2023-09-07T13:31:07;101167.59;;;26.09;54.76
48204;BME280;33994;50.998;5.864;2023-09-07T13:34:10;101160.94;;;26.15;54.41
48204;BME280;33994;50.998;5.864;2023-09-07T13:37:15;101155.34;;;26.18;54.44
48204;BME280;33994;50.998;5.864;2023-09-07T13:40:18;101162.19;;;26.22;54.56
48204;BME280;33994;50.998;5.864;2023-09-07T13:43:21;101160.00;;;26.27;54.57
48204;BME280;33994;50.998;5.864;2023-09-07T13:46:25;101161.47;;;26.31;54.26
48204;BME280;33994;50.998;5.864;2023-09-07T13:49:28;101159.66;;;26.32;53.81
48204;BME280;33994;50.998;5.864;2023-09-07T13:52:32;101151.63;;;26.32;53.34
48204;BME280;33994;50.998;5.864;2023-09-07T13:55:35;101159.56;;;26.33;53.50
48204;BME280;33994;50.998;5.864;2023-09-07T13:58:39;101155.91;;;26.34;53.72
48204;BME280;33994;50.998;5.864;2023-09-07T14:01:42;101154.19;;;26.33;53.75
48204;BME280;33994;50.998;5.864;2023-09-07T14:04:45;101154.19;;;26.33;53.97
48204;BME280;33994;50.998;5.864;2023-09-07T14:07:49;101151.38;;;26.35;53.53
48204;BME280;33994;50.998;5.864;2023-09-07T14:10:53;101161.25;;;26.34;53.47
48204;BME280;33994;50.998;5.864;2023-09-07T14:13:56;101158.56;;;26.34;53.73
48204;BME280;33994;50.998;5.864;2023-09-07T14:16:59;101159.56;;;26.33;53.67
48204;BME280;33994;50.998;5.864;2023-09-07T14:20:03;101157.59;;;26.35;53.32
48204;BME280;33994;50.998;5.864;2023-09-07T14:23:08;101152.97;;;26.37;53.48
48204;BME280;33994;50.998;5.864;2023-09-07T14:26:11;101143.88;;;26.40;53.33
48204;BME280;33994;50.998;5.864;2023-09-07T14:29:14;101146.19;;;26.44;53.72
48204;BME280;33994;50.998;5.864;2023-09-07T14:32:17;101151.31;;;26.48;53.17
48204;BME280;33994;50.998;5.864;2023-09-07T14:35:20;101144.84;;;26.50;52.74
48204;BME280;33994;50.998;5.864;2023-09-07T14:38:25;101152.78;;;26.52;52.72
48204;BME280;33994;50.998;5.864;2023-09-07T14:41:28;101149.13;;;26.53;52.95
48204;BME280;33994;50.998;5.864;2023-09-07T14:44:32;101151.91;;;26.51;53.14
48204;BME280;33994;50.998;5.864;2023-09-07T14:47:35;101143.16;;;26.49;53.03
48204;BME280;33994;50.998;5.864;2023-09-07T14:50:38;101137.66;;;26.51;52.57
48204;BME280;33994;50.998;5.864;2023-09-07T14:53:43;101134.13;;;26.50;52.31
48204;BME280;33994;50.998;5.864;2023-09-07T14:56:46;101143.53;;;26.56;51.72
48204;BME280;33994;50.998;5.864;2023-09-07T14:59:49;101136.22;;;26.58;51.96
48204;BME280;33994;50.998;5.864;2023-09-07T15:02:53;101138.16;;;26.56;51.93
48204;BME280;33994;50.998;5.864;2023-09-07T15:05:56;101137.31;;;26.55;51.87
48204;BME280;33994;50.998;5.864;2023-09-07T15:09:01;101138.16;;;26.56;51.58
48204;BME280;33994;50.998;5.864;2023-09-07T15:12:05;101134.63;;;26.55;51.58
48204;BME280;33994;50.998;5.864;2023-09-07T15:15:09;101133.28;;;26.61;51.52
48204;BME280;33994;50.998;5.864;2023-09-07T15:18:11;101135.00;;;26.62;51.48
48204;BME280;33994;50.998;5.864;2023-09-07T15:21:15;101137.91;;;26.59;51.24
48204;BME280;33994;50.998;5.864;2023-09-07T15:24:20;101132.53;;;26.59;50.43
48204;BME280;33994;50.998;5.864;2023-09-07T15:27:24;101136.97;;;26.60;50.44
48204;BME280;33994;50.998;5.864;2023-09-07T15:30:27;101121.81;;;26.59;50.30
48204;BME280;33994;50.998;5.864;2023-09-07T15:33:30;101127.44;;;26.56;50.20
48204;BME280;33994;50.998;5.864;2023-09-07T15:36:33;101127.44;;;26.56;49.78
48204;BME280;33994;50.998;5.864;2023-09-07T15:39:38;101122.94;;;26.56;49.88
48204;BME280;33994;50.998;5.864;2023-09-07T15:42:41;101129.16;;;26.57;50.16
48204;BME280;33994;50.998;5.864;2023-09-07T15:45:45;101125.47;;;26.58;49.54
48204;BME280;33994;50.998;5.864;2023-09-07T15:48:48;101120.13;;;26.58;49.15
48204;BME280;33994;50.998;5.864;2023-09-07T15:51:51;101116.59;;;26.57;49.42
48204;BME280;33994;50.998;5.864;2023-09-07T15:54:55;101124.50;;;26.59;49.02
48204;BME280;33994;50.998;5.864;2023-09-07T15:57:58;101114.75;;;26.58;48.98
48204;BME280;33994;50.998;5.864;2023-09-07T16:01:02;101111.09;;;26.59;48.87